sensor_id;sensor_type;location;lat;lon;timestamp;pressure;altitude;pressure_sealevel;temperature;humidity
50592;BME280;36548;50.506;30.834;2023-03-05T00:00:10;98733.74;;;1.07;47.88
50592;BME280;36548;50.506;30.834;2023-03-05T00:01:24;98734.59;;;1.08;48.12
50592;BME280;36548;50.506;30.834;2023-03-05T00:02:33;98732.78;;;1.08;47.96
50592;BME280;36548;50.506;30.834;2023-03-05T00:03:42;98724.17;;;1.05;47.47
50592;BME280;36548;50.506;30.834;2023-03-05T00:04:52;98726.58;;;0.92;47.03
50592;BME280;36548;50.506;30.834;2023-03-05T00:06:28;98717.80;;;1.09;47.03
50592;BME280;36548;50.506;30.834;2023-03-05T00:07:37;98728.51;;;0.88;46.94
50592;BME280;36548;50.506;30.834;2023-03-05T00:08:48;98733.31;;;0.80;47.16
50592;BME280;36548;50.506;30.834;2023-03-05T00:09:59;98733.08;;;0.84;46.96
50592;BME280;36548;50.506;30.834;2023-03-05T00:11:10;98736.80;;;0.80;46.56
50592;BME280;36548;50.506;30.834;2023-03-05T00:12:20;98724.55;;;0.79;46.66
50592;BME280;36548;50.506;30.834;2023-03-05T00:13:29;98729.59;;;0.84;46.93
50592;BME280;36548;50.506;30.834;2023-03-05T00:14:39;98746.20;;;0.86;46.90
50592;BME280;36548;50.506;30.834;2023-03-05T00:15:48;98751.16;;;0.75;46.27
50592;BME280;36548;50.506;30.834;2023-03-05T00:16:58;98732.47;;;0.79;46.55
50592;BME280;36548;50.506;30.834;2023-03-05T00:18:07;98748.16;;;0.82;46.61
50592;BME280;36548;50.506;30.834;2023-03-05T00:19:16;98741.47;;;0.75;46.12
50592;BME280;36548;50.506;30.834;2023-03-05T00:20:25;98747.52;;;0.77;46.19
50592;BME280;36548;50.506;30.834;2023-03-05T00:21:37;98747.67;;;0.74;45.87
50592;BME280;36548;50.506;30.834;2023-03-05T00:22:47;98755.61;;;0.55;45.47
50592;BME280;36548;50.506;30.834;2023-03-05T00:23:58;98750.41;;;0.34;45.94
50592;BME280;36548;50.506;30.834;2023-03-05T00:25:10;98757.69;;;0.48;46.05
50592;BME280;36548;50.506;30.834;2023-03-05T00:26:22;98746.05;;;0.53;46.05
50592;BME280;36548;50.506;30.834;2023-03-05T00:27:32;98752.13;;;0.55;45.65
50592;BME280;36548;50.506;30.834;2023-03-05T00:28:43;98750.48;;;0.52;45.49
50592;BME280;36548;50.506;30.834;2023-03-05T00:29:58;98753.95;;;0.72;45.84
50592;BME280;36548;50.506;30.834;2023-03-05T00:31:07;98747.61;;;0.57;45.12
50592;BME280;36548;50.506;30.834;2023-03-05T00:32:23;98739.42;;;0.63;45.14
50592;BME280;36548;50.506;30.834;2023-03-05T00:33:33;98755.42;;;0.41;45.04
50592;BME280;36548;50.506;30.834;2023-03-05T00:34:42;98760.90;;;0.36;45.16
50592;BME280;36548;50.506;30.834;2023-03-05T00:35:52;98756.84;;;0.48;45.70
50592;BME280;36548;50.506;30.834;2023-03-05T00:37:02;98773.53;;;0.48;45.43
50592;BME280;36548;50.506;30.834;2023-03-05T00:38:11;98760.36;;;0.29;45.42
50592;BME280;36548;50.506;30.834;2023-03-05T00:39:21;98761.27;;;0.28;45.51
50592;BME280;36548;50.506;30.834;2023-03-05T00:40:38;98758.98;;;0.40;45.60
50592;BME280;36548;50.506;30.834;2023-03-05T00:41:49;98759.55;;;0.27;45.68
50592;BME280;36548;50.506;30.834;2023-03-05T00:42:58;98761.92;;;0.33;45.80
50592;BME280;36548;50.506;30.834;2023-03-05T00:44:08;98770.77;;;0.32;45.66
50592;BME280;36548;50.506;30.834;2023-03-05T00:45:18;98767.05;;;0.37;45.84
50592;BME280;36548;50.506;30.834;2023-03-05T00:46:27;98768.13;;;0.32;45.65
50592;BME280;36548;50.506;30.834;2023-03-05T00:47:36;98768.81;;;0.36;45.93
50592;BME280;36548;50.506;30.834;2023-03-05T00:48:45;98774.39;;;0.30;45.79
50592;BME280;36548;50.506;30.834;2023-03-05T00:49:53;98786.94;;;0.25;45.67
50592;BME280;36548;50.506;30.834;2023-03-05T00:51:04;98778.68;;;0.32;45.74
50592;BME280;36548;50.506;30.834;2023-03-05T00:52:14;98786.09;;;0.24;45.81
50592;BME280;36548;50.506;30.834;2023-03-05T00:53:23;98783.31;;;0.27;45.98
50592;BME280;36548;50.506;30.834;2023-03-05T00:54:33;98785.59;;;0.16;45.85
50592;BME280;36548;50.506;30.834;2023-03-05T00:55:41;98791.52;;;0.21;45.85
50592;BME280;36548;50.506;30.834;2023-03-05T00:56:51;98794.93;;;0.23;45.89
50592;BME280;36548;50.506;30.834;2023-03-05T00:58:01;98791.30;;;0.26;45.92
50592;BME280;36548;50.506;30.834;2023-03-05T00:59:10;98789.50;;;0.26;45.80
50592;BME280;36548;50.506;30.834;2023-03-05T01:00:20;98797.30;;;0.29;46.05
50592;BME280;36548;50.506;30.834;2023-03-05T01:01:30;98801.52;;;0.33;46.00
50592;BME280;36548;50.506;30.834;2023-03-05T01:02:40;98793.45;;;0.37;45.92
50592;BME280;36548;50.506;30.834;2023-03-05T01:03:50;98797.73;;;0.39;45.96
50592;BME280;36548;50.506;30.834;2023-03-05T01:05:01;98800.45;;;0.38;46.00
50592;BME280;36548;50.506;30.834;2023-03-05T01:06:12;98790.16;;;0.31;45.95
50592;BME280;36548;50.506;30.834;2023-03-05T01:07:20;98799.88;;;0.31;46.13
50592;BME280;36548;50.506;30.834;2023-03-05T01:08:30;98800.94;;;0.27;46.24
50592;BME280;36548;50.506;30.834;2023-03-05T01:09:45;98799.58;;;0.37;46.16
50592;BME280;36548;50.506;30.834;2023-03-05T01:10:54;98803.72;;;0.24;46.18
50592;BME280;36548;50.506;30.834;2023-03-05T01:12:04;98797.72;;;0.20;46.54
50592;BME280;36548;50.506;30.834;2023-03-05T01:13:14;98802.70;;;0.26;46.70
50592;BME280;36548;50.506;30.834;2023-03-05T01:14:25;98806.91;;;0.30;46.62
50592;BME280;36548;50.506;30.834;2023-03-05T01:15:37;98794.49;;;0.13;46.35
50592;BME280;36548;50.506;30.834;2023-03-05T01:16:47;98810.54;;;0.09;46.65
50592;BME280;36548;50.506;30.834;2023-03-05T01:17:55;98799.84;;;0.12;46.84
50592;BME280;36548;50.506;30.834;2023-03-05T01:19:30;98802.34;;;0.15;46.69
50592;BME280;36548;50.506;30.834;2023-03-05T01:20:40;98800.46;;;-0.02;46.79
50592;BME280;36548;50.506;30.834;2023-03-05T01:21:49;98811.67;;;0.03;46.96
50592;BME280;36548;50.506;30.834;2023-03-05T01:23:04;98799.19;;;0.07;46.80
50592;BME280;36548;50.506;30.834;2023-03-05T01:24:13;98803.09;;;-0.02;46.89
50592;BME280;36548;50.506;30.834;2023-03-05T01:25:22;98803.83;;;0.02;46.94
50592;BME280;36548;50.506;30.834;2023-03-05T01:26:31;98791.70;;;-0.03;46.98
50592;BME280;36548;50.506;30.834;2023-03-05T01:27:41;98802.06;;;-0.19;47.03
50592;BME280;36548;50.506;30.834;2023-03-05T01:28:50;98814.05;;;-0.11;47.09
50592;BME280;36548;50.506;30.834;2023-03-05T01:30:00;98795.52;;;-0.10;47.34
50592;BME280;36548;50.506;30.834;2023-03-05T01:31:09;98804.77;;;-0.41;47.53
50592;BME280;36548;50.506;30.834;2023-03-05T01:32:18;98808.46;;;-0.24;47.55
50592;BME280;36548;50.506;30.834;2023-03-05T01:33:33;98805.95;;;-0.07;47.34
50592;BME280;36548;50.506;30.834;2023-03-05T01:34:44;98807.78;;;-0.09;47.28
50592;BME280;36548;50.506;30.834;2023-03-05T01:35:52;98803.92;;;-0.21;47.21
50592;BME280;36548;50.506;30.834;2023-03-05T01:37:02;98787.04;;;-0.16;47.29
50592;BME280;36548;50.506;30.834;2023-03-05T01:38:11;98804.77;;;-0.20;47.11
50592;BME280;36548;50.506;30.834;2023-03-05T01:39:26;98809.29;;;-0.03;47.33
50592;BME280;36548;50.506;30.834;2023-03-05T01:40:36;98803.85;;;-0.19;47.09
50592;BME280;36548;50.506;30.834;2023-03-05T01:41:46;98786.30;;;-0.20;47.28
50592;BME280;36548;50.506;30.834;2023-03-05T01:44:24;98805.16;;;-0.29;47.51
50592;BME280;36548;50.506;30.834;2023-03-05T01:45:34;98806.49;;;-0.40;47.73
50592;BME280;36548;50.506;30.834;2023-03-05T01:46:44;98800.62;;;-0.26;47.78
50592;BME280;36548;50.506;30.834;2023-03-05T01:47:54;98804.63;;;-0.17;47.71
50592;BME280;36548;50.506;30.834;2023-03-05T01:50:27;98809.59;;;-0.30;47.35
50592;BME280;36548;50.506;30.834;2023-03-05T01:51:49;98799.88;;;-0.29;47.52
50592;BME280;36548;50.506;30.834;2023-03-05T01:53:01;98822.56;;;-0.25;47.30
50592;BME280;36548;50.506;30.834;2023-03-05T01:54:19;98809.65;;;-0.11;47.57
50592;BME280;36548;50.506;30.834;2023-03-05T01:55:29;98813.52;;;-0.20;47.48
50592;BME280;36548;50.506;30.834;2023-03-05T01:56:41;98810.25;;;-0.25;47.45
50592;BME280;36548;50.506;30.834;2023-03-05T01:58:04;98815.59;;;-0.26;47.51
50592;BME280;36548;50.506;30.834;2023-03-05T01:59:15;98809.59;;;-0.30;47.64
50592;BME280;36548;50.506;30.834;2023-03-05T02:00:28;98808.84;;;-0.33;47.64
50592;BME280;36548;50.506;30.834;2023-03-05T02:01:43;98814.93;;;-0.31;47.78
50592;BME280;36548;50.506;30.834;2023-03-05T02:02:52;98808.28;;;-0.40;47.64
50592;BME280;36548;50.506;30.834;2023-03-05T02:04:02;98810.92;;;-0.40;47.84
50592;BME280;36548;50.506;30.834;2023-03-05T02:05:20;98817.25;;;-0.44;47.89
50592;BME280;36548;50.506;30.834;2023-03-05T02:06:27;98811.69;;;-0.38;48.02
50592;BME280;36548;50.506;30.834;2023-03-05T02:07:38;98813.94;;;-0.49;48.19
50592;BME280;36548;50.506;30.834;2023-03-05T02:08:48;98821.64;;;-0.45;48.03
50592;BME280;36548;50.506;30.834;2023-03-05T02:09:58;98818.83;;;-0.40;48.25
50592;BME280;36548;50.506;30.834;2023-03-05T02:11:07;98822.31;;;-0.40;48.22
50592;BME280;36548;50.506;30.834;2023-03-05T02:12:17;98815.17;;;-0.38;48.15
50592;BME280;36548;50.506;30.834;2023-03-05T02:14:48;98818.41;;;-0.31;48.20
50592;BME280;36548;50.506;30.834;2023-03-05T02:16:00;98812.81;;;-0.44;48.25
50592;BME280;36548;50.506;30.834;2023-03-05T02:17:11;98823.64;;;-0.50;48.42
50592;BME280;36548;50.506;30.834;2023-03-05T02:18:20;98820.47;;;-0.58;48.49
50592;BME280;36548;50.506;30.834;2023-03-05T02:21:08;98816.12;;;-0.39;48.79
50592;BME280;36548;50.506;30.834;2023-03-05T02:22:19;98821.70;;;-0.46;48.84
50592;BME280;36548;50.506;30.834;2023-03-05T02:23:33;98825.16;;;-0.44;48.73
50592;BME280;36548;50.506;30.834;2023-03-05T02:24:44;98823.30;;;-0.42;48.70
50592;BME280;36548;50.506;30.834;2023-03-05T02:25:54;98832.59;;;-0.54;48.95
50592;BME280;36548;50.506;30.834;2023-03-05T02:27:05;98827.89;;;-0.47;48.84
50592;BME280;36548;50.506;30.834;2023-03-05T02:29:31;98823.64;;;-0.50;48.90
50592;BME280;36548;50.506;30.834;2023-03-05T02:30:42;98829.48;;;-0.43;48.77
50592;BME280;36548;50.506;30.834;2023-03-05T02:31:51;98829.41;;;-0.42;48.76
50592;BME280;36548;50.506;30.834;2023-03-05T02:33:02;98828.43;;;-0.39;48.67
50592;BME280;36548;50.506;30.834;2023-03-05T02:34:17;98824.28;;;-0.24;48.79
50592;BME280;36548;50.506;30.834;2023-03-05T02:35:26;98828.43;;;-0.39;48.69
50592;BME280;36548;50.506;30.834;2023-03-05T02:36:36;98826.67;;;-0.39;48.69
50592;BME280;36548;50.506;30.834;2023-03-05T02:37:46;98835.47;;;-0.60;49.08
50592;BME280;36548;50.506;30.834;2023-03-05T02:38:55;98836.78;;;-0.71;49.28
50592;BME280;36548;50.506;30.834;2023-03-05T02:40:06;98836.72;;;-0.69;49.63
50592;BME280;36548;50.506;30.834;2023-03-05T02:41:22;98833.51;;;-0.55;49.60
50592;BME280;36548;50.506;30.834;2023-03-05T02:42:33;98832.05;;;-0.62;49.51
50592;BME280;36548;50.506;30.834;2023-03-05T02:43:42;98841.11;;;-0.70;49.67
50592;BME280;36548;50.506;30.834;2023-03-05T02:44:51;98826.78;;;-0.62;49.74
50592;BME280;36548;50.506;30.834;2023-03-05T02:46:02;98827.90;;;-0.68;49.75
50592;BME280;36548;50.506;30.834;2023-03-05T02:47:12;98837.42;;;-0.65;49.69
50592;BME280;36548;50.506;30.834;2023-03-05T02:48:22;98840.73;;;-0.60;49.82
50592;BME280;36548;50.506;30.834;2023-03-05T02:49:32;98828.74;;;-0.67;50.04
50592;BME280;36548;50.506;30.834;2023-03-05T02:50:41;98835.80;;;-0.68;50.02
50592;BME280;36548;50.506;30.834;2023-03-05T02:51:51;98840.88;;;-0.63;50.04
50592;BME280;36548;50.506;30.834;2023-03-05T02:53:02;98841.58;;;-0.60;49.99
50592;BME280;36548;50.506;30.834;2023-03-05T02:54:11;98837.70;;;-0.72;50.01
50592;BME280;36548;50.506;30.834;2023-03-05T02:55:22;98833.41;;;-0.74;50.21
50592;BME280;36548;50.506;30.834;2023-03-05T02:56:32;98833.41;;;-0.74;50.38
50592;BME280;36548;50.506;30.834;2023-03-05T02:57:42;98836.88;;;-0.74;50.33
50592;BME280;36548;50.506;30.834;2023-03-05T02:58:51;98834.73;;;-0.64;50.32
50592;BME280;36548;50.506;30.834;2023-03-05T03:00:02;98833.88;;;-0.64;50.28
50592;BME280;36548;50.506;30.834;2023-03-05T03:01:11;98839.42;;;-0.71;50.41
50592;BME280;36548;50.506;30.834;2023-03-05T03:02:26;98842.87;;;-0.48;50.46
50592;BME280;36548;50.506;30.834;2023-03-05T03:03:38;98830.20;;;-0.60;50.21
50592;BME280;36548;50.506;30.834;2023-03-05T03:04:49;98831.58;;;-0.52;50.23
50592;BME280;36548;50.506;30.834;2023-03-05T03:05:58;98842.02;;;-0.48;50.14
50592;BME280;36548;50.506;30.834;2023-03-05T03:07:07;98839.48;;;-0.52;50.13
50592;BME280;36548;50.506;30.834;2023-03-05T03:08:16;98842.46;;;-0.59;50.27
50592;BME280;36548;50.506;30.834;2023-03-05T03:09:25;98830.27;;;-0.62;50.39
50592;BME280;36548;50.506;30.834;2023-03-05T03:10:36;98836.52;;;-0.64;50.36
50592;BME280;36548;50.506;30.834;2023-03-05T03:11:46;98843.31;;;-0.59;50.52
50592;BME280;36548;50.506;30.834;2023-03-05T03:12:56;98846.28;;;-0.66;50.72
50592;BME280;36548;50.506;30.834;2023-03-05T03:14:05;98840.73;;;-0.60;50.63
50592;BME280;36548;50.506;30.834;2023-03-05T03:15:15;98839.35;;;-0.69;50.65
50592;BME280;36548;50.506;30.834;2023-03-05T03:16:25;98849.56;;;-0.61;50.82
50592;BME280;36548;50.506;30.834;2023-03-05T03:17:36;98852.09;;;-0.58;50.62
50592;BME280;36548;50.506;30.834;2023-03-05T03:18:45;98855.30;;;-0.52;50.61
50592;BME280;36548;50.506;30.834;2023-03-05T03:19:56;98852.13;;;-0.60;50.63
50592;BME280;36548;50.506;30.834;2023-03-05T03:21:06;98845.09;;;-0.59;50.61
50592;BME280;36548;50.506;30.834;2023-03-05T03:22:16;98854.59;;;-0.55;50.80
50592;BME280;36548;50.506;30.834;2023-03-05T03:23:26;98855.44;;;-0.55;50.63
50592;BME280;36548;50.506;30.834;2023-03-05T03:24:37;98860.64;;;-0.53;50.72
50592;BME280;36548;50.506;30.834;2023-03-05T03:25:53;98860.27;;;-0.44;50.73
50592;BME280;36548;50.506;30.834;2023-03-05T03:27:03;98865.81;;;-0.50;50.84
50592;BME280;36548;50.506;30.834;2023-03-05T03:28:12;98859.53;;;-0.47;50.77
50592;BME280;36548;50.506;30.834;2023-03-05T03:29:21;98860.27;;;-0.44;50.65
50592;BME280;36548;50.506;30.834;2023-03-05T03:30:31;98862.98;;;-0.45;50.46
50592;BME280;36548;50.506;30.834;2023-03-05T03:31:39;98863.72;;;-0.64;50.77
50592;BME280;36548;50.506;30.834;2023-03-05T03:32:51;98861.76;;;-0.59;51.04
50592;BME280;36548;50.506;30.834;2023-03-05T03:34:00;98858.89;;;-0.53;50.96
50592;BME280;36548;50.506;30.834;2023-03-05T03:35:09;98874.63;;;-0.51;50.91
50592;BME280;36548;50.506;30.834;2023-03-05T03:36:22;98864.16;;;-0.53;50.98
50592;BME280;36548;50.506;30.834;2023-03-05T03:37:38;98860.47;;;-0.48;50.99
50592;BME280;36548;50.506;30.834;2023-03-05T03:38:48;98865.20;;;-0.57;51.21
50592;BME280;36548;50.506;30.834;2023-03-05T03:39:57;98858.21;;;-0.58;51.07
50592;BME280;36548;50.506;30.834;2023-03-05T03:41:08;98862.44;;;-0.54;51.07
50592;BME280;36548;50.506;30.834;2023-03-05T03:42:19;98864.09;;;-0.51;51.09
50592;BME280;36548;50.506;30.834;2023-03-05T03:43:29;98871.02;;;-0.48;51.18
50592;BME280;36548;50.506;30.834;2023-03-05T03:44:38;98873.31;;;-0.41;51.13
50592;BME280;36548;50.506;30.834;2023-03-05T03:45:47;98866.22;;;-0.39;50.97
50592;BME280;36548;50.506;30.834;2023-03-05T03:47:03;98869.96;;;-0.24;50.91
50592;BME280;36548;50.506;30.834;2023-03-05T03:48:12;98877.47;;;-0.35;50.81
50592;BME280;36548;50.506;30.834;2023-03-05T03:49:23;98881.83;;;-0.34;50.74
50592;BME280;36548;50.506;30.834;2023-03-05T03:50:33;98873.92;;;-0.34;50.83
50592;BME280;36548;50.506;30.834;2023-03-05T03:51:43;98877.47;;;-0.35;50.86
50592;BME280;36548;50.506;30.834;2023-03-05T03:52:52;98880.18;;;-0.37;50.87
50592;BME280;36548;50.506;30.834;2023-03-05T03:54:01;98868.44;;;-0.29;51.11
50592;BME280;36548;50.506;30.834;2023-03-05T03:55:17;98872.59;;;-0.24;50.87
50592;BME280;36548;50.506;30.834;2023-03-05T03:56:27;98883.86;;;-0.41;51.05
50592;BME280;36548;50.506;30.834;2023-03-05T03:57:36;98872.78;;;-0.49;51.38
50592;BME280;36548;50.506;30.834;2023-03-05T03:58:48;98880.62;;;-0.47;51.51
50592;BME280;36548;50.506;30.834;2023-03-05T04:00:04;98866.92;;;-0.35;51.31
50592;BME280;36548;50.506;30.834;2023-03-05T04:01:23;98867.88;;;-0.36;51.32
50592;BME280;36548;50.506;30.834;2023-03-05T04:02:32;98873.25;;;-0.39;51.36
50592;BME280;36548;50.506;30.834;2023-03-05T04:03:41;98880.11;;;-0.35;51.24
50592;BME280;36548;50.506;30.834;2023-03-05T04:04:50;98878.42;;;-0.36;51.02
50592;BME280;36548;50.506;30.834;2023-03-05T04:05:59;98877.23;;;-0.29;51.26
50592;BME280;36548;50.506;30.834;2023-03-05T04:07:09;98873.08;;;-0.35;51.08
50592;BME280;36548;50.506;30.834;2023-03-05T04:08:19;98889.81;;;-0.36;51.25
50592;BME280;36548;50.506;30.834;2023-03-05T04:09:28;98881.63;;;-0.29;51.26
50592;BME280;36548;50.506;30.834;2023-03-05T04:10:37;98879.87;;;-0.29;51.23
50592;BME280;36548;50.506;30.834;2023-03-05T04:11:47;98880.11;;;-0.35;50.94
50592;BME280;36548;50.506;30.834;2023-03-05T04:12:56;98880.98;;;-0.35;51.11
50592;BME280;36548;50.506;30.834;2023-03-05T04:14:05;98879.20;;;-0.34;51.29
50592;BME280;36548;50.506;30.834;2023-03-05T04:15:14;98878.28;;;-0.33;51.20
50592;BME280;36548;50.506;30.834;2023-03-05T04:16:23;98885.21;;;-0.30;51.31
50592;BME280;36548;50.506;30.834;2023-03-05T04:17:31;98879.97;;;-0.32;51.23
50592;BME280;36548;50.506;30.834;2023-03-05T04:18:47;98884.42;;;-0.12;51.29
50592;BME280;36548;50.506;30.834;2023-03-05T04:19:57;98881.32;;;-0.22;51.13
50592;BME280;36548;50.506;30.834;2023-03-05T04:21:07;98891.87;;;-0.22;51.13
50592;BME280;36548;50.506;30.834;2023-03-05T04:22:17;98887.64;;;-0.26;51.09
50592;BME280;36548;50.506;30.834;2023-03-05T04:23:26;98882.44;;;-0.27;51.23
50592;BME280;36548;50.506;30.834;2023-03-05T04:24:36;98891.94;;;-0.23;51.20
50592;BME280;36548;50.506;30.834;2023-03-05T04:25:47;98895.17;;;-0.16;51.30
50592;BME280;36548;50.506;30.834;2023-03-05T04:26:56;98891.73;;;-0.19;51.06
50592;BME280;36548;50.506;30.834;2023-03-05T04:28:05;98881.19;;;-0.19;51.12
50592;BME280;36548;50.506;30.834;2023-03-05T04:29:16;98896.16;;;-0.19;51.11
50592;BME280;36548;50.506;30.834;2023-03-05T04:30:26;98896.80;;;-0.14;51.15
50592;BME280;36548;50.506;30.834;2023-03-05T04:31:36;98902.48;;;-0.23;51.36
50592;BME280;36548;50.506;30.834;2023-03-05T04:32:46;98893.45;;;-0.18;51.32
50592;BME280;36548;50.506;30.834;2023-03-05T04:34:21;98912.17;;;-0.03;51.14
50592;BME280;36548;50.506;30.834;2023-03-05T04:35:29;98915.09;;;-0.09;51.13
50592;BME280;36548;50.506;30.834;2023-03-05T04:36:38;98902.95;;;-0.13;51.27
50592;BME280;36548;50.506;30.834;2023-03-05T04:37:49;98905.90;;;-0.21;51.37
50592;BME280;36548;50.506;30.834;2023-03-05T04:38:59;98910.56;;;-0.28;51.41
50592;BME280;36548;50.506;30.834;2023-03-05T04:40:09;98915.50;;;-0.41;51.76
50592;BME280;36548;50.506;30.834;2023-03-05T04:41:27;98902.28;;;-0.19;51.91
50592;BME280;36548;50.506;30.834;2023-03-05T04:42:37;98891.02;;;-0.22;51.71
50592;BME280;36548;50.506;30.834;2023-03-05T04:43:46;98913.27;;;-0.29;51.76
50592;BME280;36548;50.506;30.834;2023-03-05T04:45:02;98905.90;;;-0.21;51.93
50592;BME280;36548;50.506;30.834;2023-03-05T04:46:11;98888.31;;;-0.21;51.90
50592;BME280;36548;50.506;30.834;2023-03-05T04:47:20;98907.36;;;-0.35;51.66
50592;BME280;36548;50.506;30.834;2023-03-05T04:48:29;98904.71;;;-0.14;52.00
50592;BME280;36548;50.506;30.834;2023-03-05T04:49:37;98904.86;;;0.04;51.42
50592;BME280;36548;50.506;30.834;2023-03-05T04:50:54;98911.13;;;0.22;50.92
50592;BME280;36548;50.506;30.834;2023-03-05T04:52:05;98889.54;;;0.32;50.65
50592;BME280;36548;50.506;30.834;2023-03-05T04:53:20;98894.16;;;0.67;50.25
50592;BME280;36548;50.506;30.834;2023-03-05T04:54:29;98911.22;;;0.60;49.84
50592;BME280;36548;50.506;30.834;2023-03-05T04:55:37;98906.56;;;0.65;49.43
50592;BME280;36548;50.506;30.834;2023-03-05T04:56:46;98907.55;;;0.62;49.45
50592;BME280;36548;50.506;30.834;2023-03-05T04:57:55;98904.91;;;0.43;49.42
50592;BME280;36548;50.506;30.834;2023-03-05T04:59:05;98911.17;;;0.41;49.87
50592;BME280;36548;50.506;30.834;2023-03-05T05:00:17;98907.84;;;0.56;49.81
50592;BME280;36548;50.506;30.834;2023-03-05T05:01:27;98919.36;;;0.74;49.29
50592;BME280;36548;50.506;30.834;2023-03-05T05:02:43;98906.21;;;1.11;49.17
50592;BME280;36548;50.506;30.834;2023-03-05T05:03:52;98923.63;;;1.34;48.36
50592;BME280;36548;50.506;30.834;2023-03-05T05:05:01;98921.64;;;1.57;47.31
50592;BME280;36548;50.506;30.834;2023-03-05T05:06:11;98928.16;;;2.03;47.31
50592;BME280;36548;50.506;30.834;2023-03-05T05:07:20;98916.94;;;2.16;45.73
50592;BME280;36548;50.506;30.834;2023-03-05T05:08:28;98922.69;;;2.42;44.95
50592;BME280;36548;50.506;30.834;2023-03-05T05:09:38;98917.83;;;2.83;44.44
50592;BME280;36548;50.506;30.834;2023-03-05T05:11:00;98918.36;;;3.06;44.08
50592;BME280;36548;50.506;30.834;2023-03-05T05:12:16;98919.66;;;3.31;43.86
50592;BME280;36548;50.506;30.834;2023-03-05T05:13:27;98923.06;;;3.33;42.56
50592;BME280;36548;50.506;30.834;2023-03-05T05:14:38;98925.92;;;3.76;42.42
50592;BME280;36548;50.506;30.834;2023-03-05T05:15:48;98931.73;;;4.13;42.65
50592;BME280;36548;50.506;30.834;2023-03-05T05:16:57;98932.44;;;4.31;41.56
50592;BME280;36548;50.506;30.834;2023-03-05T05:18:06;98921.83;;;4.46;41.08
50592;BME280;36548;50.506;30.834;2023-03-05T05:19:15;98933.04;;;4.51;39.73
50592;BME280;36548;50.506;30.834;2023-03-05T05:20:24;98932.63;;;4.28;40.36
50592;BME280;36548;50.506;30.834;2023-03-05T05:21:34;98929.92;;;4.58;40.19
50592;BME280;36548;50.506;30.834;2023-03-05T05:22:43;98936.67;;;4.64;39.53
50592;BME280;36548;50.506;30.834;2023-03-05T05:23:53;98931.53;;;4.90;40.04
50592;BME280;36548;50.506;30.834;2023-03-05T05:25:02;98934.68;;;4.82;39.56
50592;BME280;36548;50.506;30.834;2023-03-05T05:26:14;98937.70;;;4.61;38.92
50592;BME280;36548;50.506;30.834;2023-03-05T05:27:23;98928.30;;;4.41;39.48
50592;BME280;36548;50.506;30.834;2023-03-05T05:28:34;98913.05;;;4.15;39.80
50592;BME280;36548;50.506;30.834;2023-03-05T05:29:43;98918.14;;;3.73;40.35
50592;BME280;36548;50.506;30.834;2023-03-05T05:30:55;98920.77;;;3.27;41.33
50592;BME280;36548;50.506;30.834;2023-03-05T05:32:05;98919.64;;;3.15;41.74
50592;BME280;36548;50.506;30.834;2023-03-05T05:33:13;98924.42;;;2.92;42.35
50592;BME280;36548;50.506;30.834;2023-03-05T05:34:23;98926.22;;;2.92;42.22
50592;BME280;36548;50.506;30.834;2023-03-05T05:35:33;98930.03;;;2.86;42.62
50592;BME280;36548;50.506;30.834;2023-03-05T05:36:45;98933.77;;;2.66;42.56
50592;BME280;36548;50.506;30.834;2023-03-05T05:37:53;98930.50;;;2.61;43.17
50592;BME280;36548;50.506;30.834;2023-03-05T05:39:03;98936.81;;;2.58;43.23
50592;BME280;36548;50.506;30.834;2023-03-05T05:40:14;98945.59;;;2.08;43.97
50592;BME280;36548;50.506;30.834;2023-03-05T05:41:24;98940.55;;;2.03;44.62
50592;BME280;36548;50.506;30.834;2023-03-05T05:42:39;98924.74;;;2.01;44.69
50592;BME280;36548;50.506;30.834;2023-03-05T05:43:49;98917.79;;;1.81;44.85
50592;BME280;36548;50.506;30.834;2023-03-05T05:45:05;98927.45;;;1.82;45.08
50592;BME280;36548;50.506;30.834;2023-03-05T05:46:17;98943.36;;;1.63;45.16
50592;BME280;36548;50.506;30.834;2023-03-05T05:47:26;98926.86;;;1.58;45.47
50592;BME280;36548;50.506;30.834;2023-03-05T05:48:36;98940.08;;;1.58;45.66
50592;BME280;36548;50.506;30.834;2023-03-05T05:49:45;98939.67;;;1.48;45.79
50592;BME280;36548;50.506;30.834;2023-03-05T05:50:55;98922.78;;;1.33;45.96
50592;BME280;36548;50.506;30.834;2023-03-05T05:52:05;98944.70;;;1.35;46.37
50592;BME280;36548;50.506;30.834;2023-03-05T05:53:14;98934.55;;;1.26;46.42
50592;BME280;36548;50.506;30.834;2023-03-05T05:54:29;98936.27;;;1.46;46.65
50592;BME280;36548;50.506;30.834;2023-03-05T05:55:40;98941.37;;;1.32;46.47
50592;BME280;36548;50.506;30.834;2023-03-05T05:56:49;98942.94;;;1.17;46.60
50592;BME280;36548;50.506;30.834;2023-03-05T05:57:59;98957.42;;;1.27;46.90
50592;BME280;36548;50.506;30.834;2023-03-05T05:59:10;98960.38;;;1.21;46.83
50592;BME280;36548;50.506;30.834;2023-03-05T06:00:20;98968.92;;;1.26;46.70
50592;BME280;36548;50.506;30.834;2023-03-05T06:01:32;98964.78;;;1.21;46.71
50592;BME280;36548;50.506;30.834;2023-03-05T06:02:42;98958.00;;;1.15;46.84
50592;BME280;36548;50.506;30.834;2023-03-05T06:03:53;98965.25;;;0.72;47.89
50592;BME280;36548;50.506;30.834;2023-03-05T06:05:03;98949.44;;;0.91;47.56
50592;BME280;36548;50.506;30.834;2023-03-05T06:06:15;98956.65;;;1.06;47.52
50592;BME280;36548;50.506;30.834;2023-03-05T06:07:25;98962.16;;;1.01;47.38
50592;BME280;36548;50.506;30.834;2023-03-05T06:08:34;98962.36;;;1.16;47.35
50592;BME280;36548;50.506;30.834;2023-03-05T06:09:44;98963.13;;;1.18;46.82
50592;BME280;36548;50.506;30.834;2023-03-05T06:10:54;98959.38;;;1.24;46.83
50592;BME280;36548;50.506;30.834;2023-03-05T06:12:04;98962.87;;;1.24;46.65
50592;BME280;36548;50.506;30.834;2023-03-05T06:13:13;98967.16;;;1.27;46.76
50592;BME280;36548;50.506;30.834;2023-03-05T06:14:22;98971.56;;;1.26;46.67
50592;BME280;36548;50.506;30.834;2023-03-05T06:15:31;98966.73;;;1.17;46.90
50592;BME280;36548;50.506;30.834;2023-03-05T06:16:40;98978.00;;;1.21;47.03
50592;BME280;36548;50.506;30.834;2023-03-05T06:17:50;98973.91;;;0.94;47.39
50592;BME280;36548;50.506;30.834;2023-03-05T06:19:00;98981.71;;;1.16;47.73